DSNT2: Lake Texoma, Denison Dam

Data processed at Mon Apr 23 2018 22:08


All information presented herein is the property of the government of the United States of America and may be revised or deleted at any time without prior notice.
Dissemination of this information without the expressed written consent of the Public Affairs Office, Tulsa District U.S. Army Corps of Engineers is strictly prohibited.
These data are gathered electronically and, as presented, have not undergone any form of quality control. These data are not guaranteed to be valid or correct.
Go to home page.
Go to station list.

Upstream stations:

Downstream station:
Previous Day
Next Day
Current Day
    
SHEF ID:       DSNT2     Lake Texoma, Denison Dam
STATION TYPE:  Reservoir
Normal Pool:  Bottom =   590.00, Top =   615.00

               PRECIP PRECIP(A) ELEVATION   STORAGE   TW-ELEV    INFLOW   RELEASE  AIR-TEMP  WIND-DIRWIND-SPEED REL-HUMID SOLAR-RAD   VOLTAGE  BAT-LOAD
                   in        in        ft     ac-ft        ft       cfs       cfs         F       deg       mph         %      W/m2      volt      volt
              Ccp-Rev   Ccp-Rev   Ccp-Rev   Ccp-Rev   Ccp-Rev  Regi-Rev  Regi-Rev   Ccp-Rev   Ccp-Rev   Ccp-Rev   Ccp-Rev   Ccp-Rev   Ccp-Rev   Ccp-Rev
(US/Central)
04/23 00:00      0.00      0.00    615.58   2383021    501.71       920        19     57.69    355.30     12.44     74.24      0.00     13.00     12.65
04/23 01:00      0.00      0.00    615.60   2384454    501.71      -901      -901     55.71    330.20     11.83     79.85      0.00     12.99     12.65
04/23 02:00      0.00      0.00    615.60   2384454    501.71      -901      -901     55.04    330.00     10.97     80.58      0.00     12.98     12.65
04/23 03:00      0.00      0.00    615.60   2384454    501.71      -901      -901     54.39    324.60     15.20     83.21      0.00     12.97     12.65
04/23 04:00      0.00      0.00    615.60   2384454    501.72      -901      -901     55.06    305.50     17.32     84.62      0.00     12.96     12.65
04/23 05:00      0.00      0.00    615.61   2385171    501.71      -901      -901     54.73    291.70     15.37     87.67      0.00     12.94     12.60
04/23 06:00      0.00      0.00    615.61   2385171    501.71      -901      -901     55.26    295.50     16.05     88.94      0.00     12.93     12.60
04/23 07:00      0.00      0.00    615.61   2385171    501.71      -901      -901     56.70    316.80     16.61     83.94      6.00     12.93     12.60
04/23 08:00      0.00      0.00    615.63   2386605    501.72      -901      -901     56.35    314.60     19.67     85.09    106.00     13.17     12.60
04/23 09:00      0.00      0.00    615.63   2386605    501.73      -901      -901     56.16    331.70     19.86     80.65    270.00     13.77     12.83
04/23 10:00      0.00      0.00    615.63   2386605    501.72      -901      -901     56.70    324.00     19.32     80.15    219.00     14.05     13.42
04/23 11:00      0.00      0.00    615.62   2385888    501.72      -901      -901     58.03    334.20     17.19     75.70    471.00     13.93     13.65
04/23 12:00      0.00      0.00    615.61   2385171    501.71      -901      -901     59.22    319.30     15.61     74.66    513.00     14.31     13.94
04/23 13:00      0.00      0.00    615.60   2384454    502.66      -901      -901     62.10    332.50     11.68     66.91   1005.00     13.94     14.06
04/23 14:00      0.00      0.00    615.60   2384454    505.84      -901      -901     64.94    310.50      6.83     61.60   1044.00     14.18     13.42
04/23 15:00      0.00      0.00    615.60   2384454    506.50      -901      -901     67.24    266.60      4.70     56.65    859.00     14.18     13.65
04/23 16:00      0.00      0.00    615.60   2384454    506.61      -901      -901     69.01    264.40      4.58     52.20    477.00     14.22     14.06
04/23 17:00      0.00      0.00    615.59   2383737    506.61      -901      -901     70.43    269.30      3.78     48.53    454.00     14.07     14.06
04/23 18:00      0.00      0.00    615.60   2384454    506.61      -901      -901     73.40    314.70      0.37     43.89    265.00     14.25     13.24
04/23 19:00      0.00      0.00    615.59   2383737    506.62      -901      -901     72.30    281.30      2.24     43.95    148.00     14.42     13.59
04/23 20:00      0.00      0.00    615.59   2383737    506.61      -901      -901     70.86    273.10      3.72     48.53     35.00     13.11     13.07
04/23 21:00      0.00      0.00    615.59   2383737    506.17      -901      -901     68.56    315.70      1.68     56.16      1.00     13.04     12.77
04/23 22:00      ----      ----      ----      ----      ----      ----        19      ----      ----      ----      ----      ----      ----      ----
04/23 23:00      ----      ----      ----      ----      ----      ----        19      ----      ----      ----      ----      ----      ----      ----